RDS135 KSAV-KATL
Flight info
| Callsign | RDS135 |
|---|---|
| Flight time | 0h 43m |
| Altitude | 32000 |
| Route | DCT SMALZ DCT TYFTR JJEDI4 |
| Aircraft | E170/M-VGDW/C |
Departure
| Time | 2026-05-07 23:24 |
|---|---|
| Airport | Savannah Hilton Head International Airport (KSAV) |
Arrival
| Time | 2026-05-08 00:08 |
|---|---|
| Airport | Hartsfield Jackson Atlanta International Airport (KATL) |
| Time | Latitude | Longitude | Altitude | Speed | Heading |
|---|---|---|---|---|---|
| 2026-05-07 23:01 | 32.13531 | -81.20605 | 38 ft | 0 kts | 327° |
| 2026-05-07 23:02 | 32.13524 | -81.20647 | 37 ft | 0 kts | 0° |
| 2026-05-07 23:12 | 32.13505 | -81.20647 | 36 ft | 4 kts | 0° |
| 2026-05-07 23:12 | 32.13478 | -81.20648 | 38 ft | 4 kts | 0° |
| 2026-05-07 23:13 | 32.13457 | -81.20650 | 38 ft | 4 kts | 22° |
| 2026-05-07 23:13 | 32.13441 | -81.20659 | 38 ft | 1 kts | 24° |
| 2026-05-07 23:15 | 32.13443 | -81.20658 | 38 ft | 0 kts | 38° |
| 2026-05-07 23:16 | 32.13448 | -81.20643 | 38 ft | 6 kts | 72° |
| 2026-05-07 23:16 | 32.13450 | -81.20581 | 39 ft | 9 kts | 92° |
| 2026-05-07 23:16 | 32.13447 | -81.20501 | 42 ft | 10 kts | 92° |
| 2026-05-07 23:16 | 32.13447 | -81.20442 | 46 ft | 0 kts | 64° |
| 2026-05-07 23:17 | 32.13453 | -81.20435 | 45 ft | 4 kts | 34° |
| 2026-05-07 23:17 | 32.13519 | -81.20424 | 48 ft | 15 kts | 3° |
| 2026-05-07 23:17 | 32.13570 | -81.20393 | 48 ft | 6 kts | 69° |
| 2026-05-07 23:17 | 32.13573 | -81.20338 | 56 ft | 8 kts | 95° |
| 2026-05-07 23:18 | 32.13569 | -81.20245 | 62 ft | 15 kts | 92° |
| 2026-05-07 23:18 | 32.13568 | -81.20095 | 67 ft | 21 kts | 89° |
| 2026-05-07 23:18 | 32.13561 | -81.19912 | 65 ft | 22 kts | 102° |
| 2026-05-07 23:18 | 32.13499 | -81.19818 | 56 ft | 16 kts | 184° |
| 2026-05-07 23:19 | 32.13383 | -81.19822 | 57 ft | 18 kts | 176° |
| 2026-05-07 23:19 | 32.13249 | -81.19820 | 52 ft | 21 kts | 181° |
| 2026-05-07 23:19 | 32.13091 | -81.19821 | 53 ft | 25 kts | 175° |
| 2026-05-07 23:19 | 32.12998 | -81.19706 | 52 ft | 22 kts | 106° |
| 2026-05-07 23:20 | 32.12967 | -81.19527 | 57 ft | 23 kts | 94° |
| 2026-05-07 23:20 | 32.12961 | -81.19331 | 59 ft | 25 kts | 90° |
| 2026-05-07 23:20 | 32.12960 | -81.19118 | 62 ft | 27 kts | 90° |
| 2026-05-07 23:20 | 32.12960 | -81.18982 | 63 ft | 8 kts | 90° |
| 2026-05-07 23:21 | 32.12959 | -81.18919 | 63 ft | 4 kts | 91° |
| 2026-05-07 23:21 | 32.12949 | -81.18883 | 64 ft | 6 kts | 139° |
| 2026-05-07 23:21 | 32.12938 | -81.18877 | 60 ft | 0 kts | 169° |
| 2026-05-07 23:22 | 32.12935 | -81.18876 | 61 ft | 3 kts | 174° |
| 2026-05-07 23:23 | 32.12881 | -81.18877 | 64 ft | 13 kts | 181° |
| 2026-05-07 23:23 | 32.12852 | -81.18890 | 62 ft | 7 kts | 241° |
| 2026-05-07 23:23 | 32.12848 | -81.18916 | 63 ft | 0 kts | 269° |
| 2026-05-07 23:24 | 32.12849 | -81.19259 | 62 ft | 84 kts | 271° |
| 2026-05-07 23:24 | 32.12848 | -81.20227 | 176 ft | 141 kts | 265° |
| 2026-05-07 23:24 | 32.12845 | -81.21405 | 1105 ft | 150 kts | 268° |
| 2026-05-07 23:25 | 32.12844 | -81.22694 | 2231 ft | 162 kts | 271° |
| 2026-05-07 23:25 | 32.13099 | -81.23982 | 3420 ft | 156 kts | 292° |
| 2026-05-07 23:25 | 32.13690 | -81.25069 | 4097 ft | 160 kts | 297° |
| 2026-05-07 23:25 | 32.14366 | -81.26248 | 4150 ft | 193 kts | 298° |
| 2026-05-07 23:26 | 32.15159 | -81.27660 | 4820 ft | 217 kts | 298° |
| 2026-05-07 23:26 | 32.16290 | -81.28976 | 5576 ft | 247 kts | 324° |
| 2026-05-07 23:26 | 32.17910 | -81.29849 | 6438 ft | 261 kts | 329° |
| 2026-05-07 23:26 | 32.19506 | -81.30860 | 7476 ft | 259 kts | 323° |
| 2026-05-07 23:27 | 32.22625 | -81.33064 | 9377 ft | 265 kts | 321° |
| 2026-05-07 23:27 | 32.24178 | -81.34253 | 10238 ft | 269 kts | 320° |
| 2026-05-07 23:27 | 32.25802 | -81.35499 | 10765 ft | 281 kts | 320° |
| 2026-05-07 23:28 | 32.27460 | -81.36809 | 11328 ft | 294 kts | 320° |
| 2026-05-07 23:28 | 32.29195 | -81.38182 | 11857 ft | 306 kts | 320° |
| 2026-05-07 23:28 | 32.30999 | -81.39604 | 12472 ft | 315 kts | 320° |
| 2026-05-07 23:28 | 32.32829 | -81.41044 | 13298 ft | 317 kts | 319° |
| 2026-05-07 23:29 | 32.34662 | -81.42483 | 14247 ft | 315 kts | 318° |
| 2026-05-07 23:29 | 32.36498 | -81.43921 | 15058 ft | 319 kts | 318° |
| 2026-05-07 23:29 | 32.38370 | -81.45383 | 15732 ft | 327 kts | 318° |
| 2026-05-07 23:29 | 32.40286 | -81.46869 | 16435 ft | 331 kts | 318° |
| 2026-05-07 23:30 | 32.42226 | -81.48366 | 17190 ft | 334 kts | 317° |
| 2026-05-07 23:30 | 32.44185 | -81.49873 | 17905 ft | 337 kts | 317° |
| 2026-05-07 23:30 | 32.46048 | -81.51522 | 18508 ft | 330 kts | 306° |
| 2026-05-07 23:30 | 32.47256 | -81.53750 | 19104 ft | 319 kts | 288° |
| 2026-05-07 23:31 | 32.47794 | -81.56277 | 19711 ft | 317 kts | 274° |
| 2026-05-07 23:31 | 32.47700 | -81.58893 | 20339 ft | 320 kts | 264° |
| 2026-05-07 23:31 | 32.47461 | -81.61525 | 20972 ft | 323 kts | 264° |
| 2026-05-07 23:31 | 32.47196 | -81.64178 | 21596 ft | 323 kts | 263° |
| 2026-05-07 23:32 | 32.46904 | -81.66814 | 21982 ft | 325 kts | 263° |
| 2026-05-07 23:32 | 32.46587 | -81.69486 | 22533 ft | 330 kts | 263° |
| 2026-05-07 23:32 | 32.46266 | -81.72191 | 23096 ft | 333 kts | 262° |
| 2026-05-07 23:32 | 32.45924 | -81.74921 | 23626 ft | 336 kts | 262° |
| 2026-05-07 23:33 | 32.45571 | -81.77671 | 24109 ft | 338 kts | 262° |
| 2026-05-07 23:33 | 32.45206 | -81.80429 | 24590 ft | 340 kts | 262° |
| 2026-05-07 23:33 | 32.44836 | -81.83166 | 25052 ft | 342 kts | 262° |
| 2026-05-07 23:33 | 32.44442 | -81.85994 | 25521 ft | 344 kts | 262° |
| 2026-05-07 23:34 | 32.44054 | -81.88738 | 26116 ft | 341 kts | 262° |
| 2026-05-07 23:34 | 32.43655 | -81.91534 | 26784 ft | 338 kts | 262° |
| 2026-05-07 23:34 | 32.43258 | -81.94226 | 27412 ft | 336 kts | 261° |
| 2026-05-07 23:34 | 32.42848 | -81.96941 | 28001 ft | 334 kts | 261° |
| 2026-05-07 23:35 | 32.42431 | -81.99635 | 28607 ft | 332 kts | 261° |
| 2026-05-07 23:35 | 32.42007 | -82.02311 | 29209 ft | 330 kts | 261° |
| 2026-05-07 23:35 | 32.41576 | -82.04969 | 29787 ft | 328 kts | 261° |
| 2026-05-07 23:35 | 32.41139 | -82.07613 | 30302 ft | 327 kts | 261° |
| 2026-05-07 23:36 | 32.40710 | -82.10240 | 30776 ft | 324 kts | 263° |
| 2026-05-07 23:36 | 32.40731 | -82.12891 | 31203 ft | 324 kts | 276° |
| 2026-05-07 23:36 | 32.41144 | -82.15509 | 31638 ft | 323 kts | 277° |
| 2026-05-07 23:36 | 32.41545 | -82.18116 | 32032 ft | 321 kts | 277° |
| 2026-05-07 23:37 | 32.42426 | -82.23462 | 32004 ft | 338 kts | 278° |
| 2026-05-07 23:37 | 32.43368 | -82.28963 | 32017 ft | 343 kts | 278° |
| 2026-05-07 23:38 | 32.44333 | -82.34521 | 31954 ft | 346 kts | 278° |
| 2026-05-07 23:38 | 32.45306 | -82.40095 | 31923 ft | 346 kts | 278° |
| 2026-05-07 23:39 | 32.46278 | -82.45673 | 31916 ft | 346 kts | 278° |
| 2026-05-07 23:39 | 32.47249 | -82.51256 | 31919 ft | 346 kts | 278° |
| 2026-05-07 23:40 | 32.48219 | -82.56840 | 31923 ft | 346 kts | 278° |
| 2026-05-07 23:40 | 32.49187 | -82.62428 | 31927 ft | 346 kts | 278° |
| 2026-05-07 23:41 | 32.50153 | -82.68020 | 31937 ft | 347 kts | 278° |
| 2026-05-07 23:41 | 32.51118 | -82.73616 | 31936 ft | 346 kts | 278° |
| 2026-05-07 23:42 | 32.52079 | -82.79205 | 31941 ft | 346 kts | 278° |
| 2026-05-07 23:42 | 32.53018 | -82.84668 | 31955 ft | 327 kts | 278° |
| 2026-05-07 23:43 | 32.53919 | -82.89942 | 31472 ft | 328 kts | 278° |
| 2026-05-07 23:43 | 32.54373 | -82.92591 | 31045 ft | 327 kts | 278° |
| 2026-05-07 23:43 | 32.54824 | -82.95231 | 30632 ft | 327 kts | 278° |
| 2026-05-07 23:44 | 32.55275 | -82.97872 | 30220 ft | 327 kts | 278° |
| 2026-05-07 23:44 | 32.55724 | -83.00517 | 29785 ft | 328 kts | 278° |
| 2026-05-07 23:44 | 32.56175 | -83.03171 | 29303 ft | 329 kts | 278° |
| 2026-05-07 23:44 | 32.56627 | -83.05839 | 28838 ft | 332 kts | 278° |
| 2026-05-07 23:45 | 32.57081 | -83.08527 | 28370 ft | 333 kts | 278° |
| 2026-05-07 23:45 | 32.57537 | -83.11228 | 27911 ft | 335 kts | 278° |
| 2026-05-07 23:45 | 32.57993 | -83.13938 | 27453 ft | 336 kts | 278° |
| 2026-05-07 23:45 | 32.58454 | -83.16659 | 27008 ft | 337 kts | 279° |
| 2026-05-07 23:46 | 32.59386 | -83.19247 | 26531 ft | 349 kts | 295° |
| 2026-05-07 23:46 | 32.60955 | -83.21493 | 26060 ft | 361 kts | 308° |
| 2026-05-07 23:46 | 32.62808 | -83.23452 | 25609 ft | 359 kts | 309° |
| 2026-05-07 23:46 | 32.64681 | -83.25394 | 25164 ft | 358 kts | 309° |
| 2026-05-07 23:47 | 32.66556 | -83.27337 | 24718 ft | 357 kts | 309° |
| 2026-05-07 23:47 | 32.68428 | -83.29272 | 24266 ft | 357 kts | 309° |
| 2026-05-07 23:47 | 32.70300 | -83.31203 | 23826 ft | 355 kts | 309° |
| 2026-05-07 23:47 | 32.72156 | -83.33117 | 23389 ft | 352 kts | 309° |
| 2026-05-07 23:48 | 32.73993 | -83.35013 | 22871 ft | 348 kts | 309° |
| 2026-05-07 23:48 | 32.75807 | -83.36889 | 22372 ft | 344 kts | 309° |
| 2026-05-07 23:48 | 32.77600 | -83.38747 | 21882 ft | 341 kts | 309° |
| 2026-05-07 23:48 | 32.79378 | -83.40593 | 21420 ft | 338 kts | 309° |
| 2026-05-07 23:49 | 32.81129 | -83.42435 | 20964 ft | 335 kts | 309° |
| 2026-05-07 23:49 | 32.82865 | -83.44262 | 20527 ft | 332 kts | 309° |
| 2026-05-07 23:49 | 32.84591 | -83.46075 | 20093 ft | 330 kts | 309° |
| 2026-05-07 23:49 | 32.86305 | -83.47874 | 19667 ft | 328 kts | 309° |
| 2026-05-07 23:50 | 32.88010 | -83.49664 | 19247 ft | 326 kts | 309° |
| 2026-05-07 23:50 | 32.89703 | -83.51438 | 18832 ft | 322 kts | 309° |
| 2026-05-07 23:50 | 32.91369 | -83.53185 | 18409 ft | 318 kts | 309° |
| 2026-05-07 23:50 | 32.93019 | -83.54915 | 17971 ft | 315 kts | 309° |
| 2026-05-07 23:51 | 32.94656 | -83.56635 | 17492 ft | 313 kts | 309° |
| 2026-05-07 23:51 | 32.96282 | -83.58341 | 17027 ft | 311 kts | 309° |
| 2026-05-07 23:51 | 32.97901 | -83.60036 | 16572 ft | 309 kts | 309° |
| 2026-05-07 23:51 | 32.99506 | -83.61718 | 16157 ft | 306 kts | 309° |
| 2026-05-07 23:52 | 33.01086 | -83.63370 | 15725 ft | 297 kts | 309° |
| 2026-05-07 23:52 | 33.02630 | -83.64990 | 15317 ft | 295 kts | 309° |
| 2026-05-07 23:52 | 33.04165 | -83.66602 | 14917 ft | 293 kts | 310° |
| 2026-05-07 23:52 | 33.05173 | -83.67660 | 14643 ft | 288 kts | 310° |
| 2026-05-07 23:53 | 33.06644 | -83.69197 | 14242 ft | 274 kts | 309° |
| 2026-05-07 23:53 | 33.08045 | -83.70665 | 13860 ft | 263 kts | 309° |
| 2026-05-07 23:53 | 33.09392 | -83.72079 | 13464 ft | 254 kts | 309° |
| 2026-05-07 23:53 | 33.10704 | -83.73466 | 13074 ft | 250 kts | 309° |
| 2026-05-07 23:54 | 33.11963 | -83.74894 | 12704 ft | 250 kts | 308° |
| 2026-05-07 23:54 | 33.13281 | -83.76277 | 12346 ft | 254 kts | 311° |
| 2026-05-07 23:54 | 33.14619 | -83.77655 | 11985 ft | 254 kts | 311° |
| 2026-05-07 23:54 | 33.15953 | -83.79047 | 11626 ft | 255 kts | 311° |
| 2026-05-07 23:55 | 33.17288 | -83.80445 | 11274 ft | 256 kts | 311° |
| 2026-05-07 23:55 | 33.18633 | -83.81857 | 10918 ft | 258 kts | 311° |
| 2026-05-07 23:55 | 33.19958 | -83.83296 | 10564 ft | 257 kts | 309° |
| 2026-05-07 23:55 | 33.21218 | -83.84815 | 10213 ft | 258 kts | 309° |
| 2026-05-07 23:56 | 33.22497 | -83.86324 | 9869 ft | 259 kts | 310° |
| 2026-05-07 23:56 | 33.23769 | -83.87853 | 9485 ft | 259 kts | 309° |
| 2026-05-07 23:56 | 33.25034 | -83.89380 | 9094 ft | 258 kts | 309° |
| 2026-05-07 23:56 | 33.26292 | -83.90903 | 8703 ft | 256 kts | 309° |
| 2026-05-07 23:57 | 33.27546 | -83.92424 | 8355 ft | 258 kts | 310° |
| 2026-05-07 23:57 | 33.28821 | -83.93933 | 7995 ft | 258 kts | 310° |
| 2026-05-07 23:57 | 33.30066 | -83.95411 | 8160 ft | 248 kts | 310° |
| 2026-05-07 23:57 | 33.31297 | -83.96884 | 8531 ft | 257 kts | 310° |
| 2026-05-07 23:58 | 33.32573 | -83.98414 | 8278 ft | 260 kts | 310° |
| 2026-05-07 23:58 | 33.33855 | -83.99946 | 8054 ft | 261 kts | 310° |
| 2026-05-07 23:58 | 33.35127 | -84.01462 | 7998 ft | 256 kts | 311° |
| 2026-05-07 23:58 | 33.36664 | -84.02603 | 7985 ft | 269 kts | 335° |
| 2026-05-07 23:59 | 33.38542 | -84.02966 | 7930 ft | 279 kts | 349° |
| 2026-05-07 23:59 | 33.40519 | -84.02730 | 7599 ft | 292 kts | 6° |
| 2026-05-07 23:59 | 33.42478 | -84.02610 | 7238 ft | 275 kts | 341° |
| 2026-05-07 23:59 | 33.44079 | -84.03619 | 6951 ft | 259 kts | 315° |
| 2026-05-08 00:00 | 33.45432 | -84.05075 | 6714 ft | 257 kts | 309° |
| 2026-05-08 00:00 | 33.46653 | -84.06632 | 6469 ft | 258 kts | 314° |
| 2026-05-08 00:00 | 33.48046 | -84.07955 | 6206 ft | 260 kts | 318° |
| 2026-05-08 00:00 | 33.49487 | -84.09271 | 5924 ft | 261 kts | 318° |
| 2026-05-08 00:01 | 33.50926 | -84.10595 | 5606 ft | 261 kts | 318° |
| 2026-05-08 00:01 | 33.52366 | -84.11937 | 5272 ft | 262 kts | 318° |
| 2026-05-08 00:01 | 33.53799 | -84.13269 | 4940 ft | 260 kts | 318° |
| 2026-05-08 00:01 | 33.55227 | -84.14594 | 4622 ft | 259 kts | 319° |
| 2026-05-08 00:02 | 33.56614 | -84.15928 | 4263 ft | 252 kts | 318° |
| 2026-05-08 00:02 | 33.57953 | -84.17259 | 3912 ft | 249 kts | 319° |
| 2026-05-08 00:02 | 33.59386 | -84.18423 | 3609 ft | 248 kts | 327° |
| 2026-05-08 00:02 | 33.60887 | -84.19467 | 3364 ft | 250 kts | 328° |
| 2026-05-08 00:03 | 33.62336 | -84.20575 | 3107 ft | 240 kts | 318° |
| 2026-05-08 00:03 | 33.63163 | -84.22153 | 2973 ft | 212 kts | 284° |
| 2026-05-08 00:03 | 33.63235 | -84.23789 | 2922 ft | 187 kts | 270° |
| 2026-05-08 00:03 | 33.63165 | -84.25269 | 2952 ft | 167 kts | 270° |
| 2026-05-08 00:04 | 33.63169 | -84.26613 | 2924 ft | 156 kts | 274° |
| 2026-05-08 00:04 | 33.63182 | -84.27874 | 2905 ft | 147 kts | 271° |
| 2026-05-08 00:04 | 33.63175 | -84.29035 | 3004 ft | 137 kts | 272° |
| 2026-05-08 00:04 | 33.63177 | -84.30201 | 2908 ft | 145 kts | 274° |
| 2026-05-08 00:05 | 33.63177 | -84.31402 | 2705 ft | 142 kts | 272° |
| 2026-05-08 00:05 | 33.63178 | -84.32573 | 2519 ft | 139 kts | 274° |
| 2026-05-08 00:05 | 33.63178 | -84.33710 | 2331 ft | 133 kts | 273° |
| 2026-05-08 00:05 | 33.63179 | -84.34795 | 2156 ft | 130 kts | 274° |
| 2026-05-08 00:06 | 33.63181 | -84.35898 | 2000 ft | 133 kts | 274° |
| 2026-05-08 00:06 | 33.63184 | -84.37000 | 1815 ft | 131 kts | 272° |
| 2026-05-08 00:06 | 33.63178 | -84.38094 | 1646 ft | 133 kts | 275° |
| 2026-05-08 00:06 | 33.63182 | -84.39216 | 1483 ft | 137 kts | 274° |
| 2026-05-08 00:07 | 33.63179 | -84.40349 | 1281 ft | 133 kts | 274° |
| 2026-05-08 00:07 | 33.63177 | -84.41418 | 1091 ft | 124 kts | 275° |
| 2026-05-08 00:07 | 33.63181 | -84.42411 | 1002 ft | 111 kts | 274° |
| 2026-05-08 00:07 | 33.63190 | -84.43176 | 1007 ft | 76 kts | 267° |
| 2026-05-08 00:08 | 33.63230 | -84.43610 | 1005 ft | 27 kts | 287° |
| 2026-05-08 00:08 | 33.63260 | -84.43695 | 1004 ft | 3 kts | 308° |
| 2026-05-08 00:08 | 33.63288 | -84.43745 | 1004 ft | 10 kts | 304° |
| 2026-05-08 00:08 | 33.63329 | -84.43830 | 1004 ft | 13 kts | 289° |
| 2026-05-08 00:09 | 33.63355 | -84.43945 | 1004 ft | 16 kts | 278° |
| 2026-05-08 00:09 | 33.63360 | -84.44086 | 1004 ft | 18 kts | 270° |
| 2026-05-08 00:09 | 33.63405 | -84.44195 | 1004 ft | 14 kts | 4° |
| 2026-05-08 00:09 | 33.63509 | -84.44192 | 1005 ft | 16 kts | 360° |
| 2026-05-08 00:10 | 33.63627 | -84.44186 | 1005 ft | 18 kts | 25° |
| 2026-05-08 00:10 | 33.63664 | -84.44048 | 1004 ft | 20 kts | 89° |
| 2026-05-08 00:10 | 33.63665 | -84.43868 | 1004 ft | 23 kts | 89° |
| 2026-05-08 00:10 | 33.63666 | -84.43668 | 1004 ft | 25 kts | 91° |
| 2026-05-08 00:11 | 33.63679 | -84.43484 | 1004 ft | 17 kts | 52° |
| 2026-05-08 00:11 | 33.63775 | -84.43458 | 1004 ft | 15 kts | 1° |
| 2026-05-08 00:11 | 33.63798 | -84.43457 | 1004 ft | 0 kts | 358° |
| 2026-05-08 00:11 | 33.63803 | -84.43457 | 1004 ft | 3 kts | 357° |
| 2026-05-08 00:12 | 33.63830 | -84.43474 | 1004 ft | 4 kts | 289° |
| 2026-05-08 00:12 | 33.63834 | -84.43520 | 1004 ft | 4 kts | 272° |
| 2026-05-08 00:12 | 33.63834 | -84.43534 | 1004 ft | 0 kts | 269° |